sensor_id;sensor_type;location;lat;lon;timestamp;temperature;humidity
3850;DHT22;1940;51.052;13.678;2023-07-28T00:02:00;18.40;92.50
3850;DHT22;1940;51.052;13.678;2023-07-28T00:04:26;18.40;92.40
3850;DHT22;1940;51.052;13.678;2023-07-28T00:06:51;18.50;92.00
3850;DHT22;1940;51.052;13.678;2023-07-28T00:09:17;18.50;91.90
3850;DHT22;1940;51.052;13.678;2023-07-28T00:11:42;18.50;91.80
3850;DHT22;1940;51.052;13.678;2023-07-28T00:14:08;18.50;91.90
3850;DHT22;1940;51.052;13.678;2023-07-28T00:16:33;18.50;91.80
3850;DHT22;1940;51.052;13.678;2023-07-28T00:18:59;18.60;91.50
3850;DHT22;1940;51.052;13.678;2023-07-28T00:21:25;18.60;91.60
3850;DHT22;1940;51.052;13.678;2023-07-28T00:23:51;18.60;91.40
3850;DHT22;1940;51.052;13.678;2023-07-28T00:26:16;18.60;91.30
3850;DHT22;1940;51.052;13.678;2023-07-28T00:28:42;18.70;91.10
3850;DHT22;1940;51.052;13.678;2023-07-28T00:31:07;18.70;91.10
3850;DHT22;1940;51.052;13.678;2023-07-28T00:33:33;18.80;90.80
3850;DHT22;1940;51.052;13.678;2023-07-28T00:35:58;18.80;90.60
3850;DHT22;1940;51.052;13.678;2023-07-28T00:38:24;18.80;90.60
3850;DHT22;1940;51.052;13.678;2023-07-28T00:40:50;18.80;90.80
3850;DHT22;1940;51.052;13.678;2023-07-28T00:43:16;18.80;90.70
3850;DHT22;1940;51.052;13.678;2023-07-28T00:45:41;18.90;90.60
3850;DHT22;1940;51.052;13.678;2023-07-28T00:48:11;18.90;90.40
3850;DHT22;1940;51.052;13.678;2023-07-28T00:50:38;18.90;90.50
3850;DHT22;1940;51.052;13.678;2023-07-28T00:53:04;18.90;90.20
3850;DHT22;1940;51.052;13.678;2023-07-28T00:55:30;19.00;90.10
3850;DHT22;1940;51.052;13.678;2023-07-28T00:57:57;19.00;89.70
3850;DHT22;1940;51.052;13.678;2023-07-28T01:00:22;19.00;89.50
3850;DHT22;1940;51.052;13.678;2023-07-28T01:02:48;19.00;89.40
3850;DHT22;1940;51.052;13.678;2023-07-28T01:05:13;19.00;89.60
3850;DHT22;1940;51.052;13.678;2023-07-28T01:07:47;19.00;89.40
3850;DHT22;1940;51.052;13.678;2023-07-28T01:10:26;19.00;89.50
3850;DHT22;1940;51.052;13.678;2023-07-28T01:12:53;19.00;89.50
3850;DHT22;1940;51.052;13.678;2023-07-28T01:15:19;19.10;89.40
3850;DHT22;1940;51.052;13.678;2023-07-28T01:17:44;19.00;89.70
3850;DHT22;1940;51.052;13.678;2023-07-28T01:20:10;19.10;89.50
3850;DHT22;1940;51.052;13.678;2023-07-28T01:28:02;19.00;89.70
3850;DHT22;1940;51.052;13.678;2023-07-28T01:30:29;19.00;89.90
3850;DHT22;1940;51.052;13.678;2023-07-28T01:32:55;19.00;90.40
3850;DHT22;1940;51.052;13.678;2023-07-28T01:35:21;18.90;91.20
3850;DHT22;1940;51.052;13.678;2023-07-28T01:37:47;18.80;91.80
3850;DHT22;1940;51.052;13.678;2023-07-28T01:40:16;18.80;92.60
3850;DHT22;1940;51.052;13.678;2023-07-28T01:42:42;18.60;92.80
3850;DHT22;1940;51.052;13.678;2023-07-28T01:45:08;18.60;93.40
3850;DHT22;1940;51.052;13.678;2023-07-28T01:47:34;18.50;93.70
3850;DHT22;1940;51.052;13.678;2023-07-28T01:49:59;18.50;94.20
3850;DHT22;1940;51.052;13.678;2023-07-28T01:52:24;18.40;94.50
3850;DHT22;1940;51.052;13.678;2023-07-28T01:54:50;18.40;94.60
3850;DHT22;1940;51.052;13.678;2023-07-28T01:57:16;18.40;94.50
3850;DHT22;1940;51.052;13.678;2023-07-28T01:59:41;18.40;94.70
3850;DHT22;1940;51.052;13.678;2023-07-28T02:02:07;18.30;94.80
3850;DHT22;1940;51.052;13.678;2023-07-28T02:04:32;18.30;95.10
3850;DHT22;1940;51.052;13.678;2023-07-28T02:06:58;18.30;95.00
3850;DHT22;1940;51.052;13.678;2023-07-28T02:09:23;18.30;95.20
3850;DHT22;1940;51.052;13.678;2023-07-28T02:11:49;18.20;95.20
3850;DHT22;1940;51.052;13.678;2023-07-28T02:14:14;18.20;95.20
3850;DHT22;1940;51.052;13.678;2023-07-28T02:16:39;18.10;95.20
3850;DHT22;1940;51.052;13.678;2023-07-28T02:19:05;18.10;95.20
3850;DHT22;1940;51.052;13.678;2023-07-28T02:21:31;18.10;95.20
3850;DHT22;1940;51.052;13.678;2023-07-28T02:23:56;18.00;95.20
3850;DHT22;1940;51.052;13.678;2023-07-28T02:26:22;18.10;95.20
3850;DHT22;1940;51.052;13.678;2023-07-28T02:28:47;18.10;95.20
3850;DHT22;1940;51.052;13.678;2023-07-28T02:31:12;18.00;95.20
3850;DHT22;1940;51.052;13.678;2023-07-28T02:33:38;18.00;95.20
3850;DHT22;1940;51.052;13.678;2023-07-28T02:36:04;18.00;95.20
3850;DHT22;1940;51.052;13.678;2023-07-28T02:38:30;18.00;95.20
3850;DHT22;1940;51.052;13.678;2023-07-28T02:40:55;18.00;95.20
3850;DHT22;1940;51.052;13.678;2023-07-28T02:43:21;17.90;95.20
3850;DHT22;1940;51.052;13.678;2023-07-28T02:45:56;18.00;95.20
3850;DHT22;1940;51.052;13.678;2023-07-28T02:48:22;18.00;95.20
3850;DHT22;1940;51.052;13.678;2023-07-28T02:50:50;18.00;95.20
3850;DHT22;1940;51.052;13.678;2023-07-28T02:53:16;17.90;95.20
3850;DHT22;1940;51.052;13.678;2023-07-28T02:55:42;17.90;95.20
3850;DHT22;1940;51.052;13.678;2023-07-28T02:58:09;17.90;95.20
3850;DHT22;1940;51.052;13.678;2023-07-28T03:00:37;17.90;95.20
3850;DHT22;1940;51.052;13.678;2023-07-28T03:03:03;18.00;95.20
3850;DHT22;1940;51.052;13.678;2023-07-28T03:05:29;18.00;95.20
3850;DHT22;1940;51.052;13.678;2023-07-28T03:07:56;18.00;95.20
3850;DHT22;1940;51.052;13.678;2023-07-28T03:10:21;18.00;95.20
3850;DHT22;1940;51.052;13.678;2023-07-28T03:12:47;18.00;95.20
3850;DHT22;1940;51.052;13.678;2023-07-28T03:15:12;18.00;95.20
3850;DHT22;1940;51.052;13.678;2023-07-28T03:17:38;18.00;95.20
3850;DHT22;1940;51.052;13.678;2023-07-28T03:20:04;17.90;95.20
3850;DHT22;1940;51.052;13.678;2023-07-28T03:22:29;18.00;95.20
3850;DHT22;1940;51.052;13.678;2023-07-28T03:24:56;18.00;95.20
3850;DHT22;1940;51.052;13.678;2023-07-28T03:27:21;18.00;95.20
3850;DHT22;1940;51.052;13.678;2023-07-28T03:29:47;18.00;95.20
3850;DHT22;1940;51.052;13.678;2023-07-28T03:32:12;18.00;95.20
3850;DHT22;1940;51.052;13.678;2023-07-28T03:34:38;18.10;95.20
3850;DHT22;1940;51.052;13.678;2023-07-28T03:37:04;18.10;95.20
3850;DHT22;1940;51.052;13.678;2023-07-28T03:39:30;18.10;95.20
3850;DHT22;1940;51.052;13.678;2023-07-28T03:41:57;18.00;95.20
3850;DHT22;1940;51.052;13.678;2023-07-28T03:44:23;18.10;95.20
3850;DHT22;1940;51.052;13.678;2023-07-28T03:46:48;18.10;95.20
3850;DHT22;1940;51.052;13.678;2023-07-28T03:49:14;18.10;95.20
3850;DHT22;1940;51.052;13.678;2023-07-28T03:51:40;18.10;95.20
3850;DHT22;1940;51.052;13.678;2023-07-28T03:54:05;18.10;95.20
3850;DHT22;1940;51.052;13.678;2023-07-28T03:56:31;18.10;95.20
3850;DHT22;1940;51.052;13.678;2023-07-28T03:58:56;18.10;95.20
3850;DHT22;1940;51.052;13.678;2023-07-28T04:01:22;18.10;95.20
3850;DHT22;1940;51.052;13.678;2023-07-28T04:03:47;18.20;95.20
3850;DHT22;1940;51.052;13.678;2023-07-28T04:06:13;18.20;95.20
3850;DHT22;1940;51.052;13.678;2023-07-28T04:08:39;18.20;95.20
3850;DHT22;1940;51.052;13.678;2023-07-28T04:11:05;18.20;95.20
3850;DHT22;1940;51.052;13.678;2023-07-28T04:13:33;18.20;95.20
3850;DHT22;1940;51.052;13.678;2023-07-28T04:15:58;18.20;95.20
3850;DHT22;1940;51.052;13.678;2023-07-28T04:18:24;18.30;95.10
3850;DHT22;1940;51.052;13.678;2023-07-28T04:20:49;18.30;95.20
3850;DHT22;1940;51.052;13.678;2023-07-28T04:23:15;18.30;95.10
3850;DHT22;1940;51.052;13.678;2023-07-28T04:25:40;18.30;95.00
3850;DHT22;1940;51.052;13.678;2023-07-28T04:28:06;18.30;95.10
3850;DHT22;1940;51.052;13.678;2023-07-28T04:30:31;18.30;95.10
3850;DHT22;1940;51.052;13.678;2023-07-28T04:32:57;18.30;95.10
3850;DHT22;1940;51.052;13.678;2023-07-28T04:35:22;18.40;94.70
3850;DHT22;1940;51.052;13.678;2023-07-28T04:37:48;18.40;94.80
3850;DHT22;1940;51.052;13.678;2023-07-28T04:40:14;18.50;94.40
3850;DHT22;1940;51.052;13.678;2023-07-28T04:42:39;18.50;94.20
3850;DHT22;1940;51.052;13.678;2023-07-28T04:45:05;18.60;93.80
3850;DHT22;1940;51.052;13.678;2023-07-28T04:47:31;18.60;93.70
3850;DHT22;1940;51.052;13.678;2023-07-28T04:49:57;18.70;93.40
3850;DHT22;1940;51.052;13.678;2023-07-28T04:52:22;18.70;93.30
3850;DHT22;1940;51.052;13.678;2023-07-28T04:54:48;18.80;93.30
3850;DHT22;1940;51.052;13.678;2023-07-28T04:57:13;18.80;93.10
3850;DHT22;1940;51.052;13.678;2023-07-28T04:59:39;18.90;92.70
3850;DHT22;1940;51.052;13.678;2023-07-28T05:02:04;18.90;92.80
3850;DHT22;1940;51.052;13.678;2023-07-28T05:04:30;18.90;92.30
3850;DHT22;1940;51.052;13.678;2023-07-28T05:06:55;18.90;92.60
3850;DHT22;1940;51.052;13.678;2023-07-28T05:09:21;19.00;92.60
3850;DHT22;1940;51.052;13.678;2023-07-28T05:11:47;19.00;92.20
3850;DHT22;1940;51.052;13.678;2023-07-28T05:14:12;19.00;92.40
3850;DHT22;1940;51.052;13.678;2023-07-28T05:16:38;19.00;92.20
3850;DHT22;1940;51.052;13.678;2023-07-28T05:19:06;19.10;92.10
3850;DHT22;1940;51.052;13.678;2023-07-28T05:21:32;19.20;91.40
3850;DHT22;1940;51.052;13.678;2023-07-28T05:23:58;19.20;91.00
3850;DHT22;1940;51.052;13.678;2023-07-28T05:26:24;19.20;91.30
3850;DHT22;1940;51.052;13.678;2023-07-28T05:28:49;19.20;90.90
3850;DHT22;1940;51.052;13.678;2023-07-28T05:31:16;19.20;91.20
3850;DHT22;1940;51.052;13.678;2023-07-28T05:33:41;19.20;91.00
3850;DHT22;1940;51.052;13.678;2023-07-28T05:36:07;19.20;90.80
3850;DHT22;1940;51.052;13.678;2023-07-28T05:38:33;19.20;90.70
3850;DHT22;1940;51.052;13.678;2023-07-28T05:40:59;19.20;90.90
3850;DHT22;1940;51.052;13.678;2023-07-28T05:43:32;19.30;90.90
3850;DHT22;1940;51.052;13.678;2023-07-28T05:45:59;19.40;90.70
3850;DHT22;1940;51.052;13.678;2023-07-28T05:48:25;19.40;89.80
3850;DHT22;1940;51.052;13.678;2023-07-28T05:50:50;19.40;89.90
3850;DHT22;1940;51.052;13.678;2023-07-28T05:53:17;19.40;89.90
3850;DHT22;1940;51.052;13.678;2023-07-28T05:55:43;19.40;90.10
3850;DHT22;1940;51.052;13.678;2023-07-28T05:58:08;19.50;90.10
3850;DHT22;1940;51.052;13.678;2023-07-28T06:00:34;19.60;89.80
3850;DHT22;1940;51.052;13.678;2023-07-28T06:03:10;19.70;89.00
3850;DHT22;1940;51.052;13.678;2023-07-28T06:05:36;19.80;88.50
3850;DHT22;1940;51.052;13.678;2023-07-28T06:08:03;19.80;88.50
3850;DHT22;1940;51.052;13.678;2023-07-28T06:10:28;19.80;88.90
3850;DHT22;1940;51.052;13.678;2023-07-28T06:12:54;19.90;88.20
3850;DHT22;1940;51.052;13.678;2023-07-28T06:15:19;20.00;88.50
3850;DHT22;1940;51.052;13.678;2023-07-28T06:17:45;20.10;87.60
3850;DHT22;1940;51.052;13.678;2023-07-28T06:20:11;20.10;87.20
3850;DHT22;1940;51.052;13.678;2023-07-28T06:22:36;20.10;87.30
3850;DHT22;1940;51.052;13.678;2023-07-28T06:25:02;20.00;87.10
3850;DHT22;1940;51.052;13.678;2023-07-28T06:27:28;20.00;87.60
3850;DHT22;1940;51.052;13.678;2023-07-28T06:29:53;20.10;87.30
3850;DHT22;1940;51.052;13.678;2023-07-28T06:32:19;20.20;87.30
3850;DHT22;1940;51.052;13.678;2023-07-28T06:34:45;20.50;86.30
3850;DHT22;1940;51.052;13.678;2023-07-28T06:37:11;20.80;85.30
3850;DHT22;1940;51.052;13.678;2023-07-28T06:39:36;20.80;85.00
3850;DHT22;1940;51.052;13.678;2023-07-28T06:42:02;21.00;84.30
3850;DHT22;1940;51.052;13.678;2023-07-28T06:44:28;21.20;83.40
3850;DHT22;1940;51.052;13.678;2023-07-28T06:46:53;21.30;83.00
3850;DHT22;1940;51.052;13.678;2023-07-28T06:49:19;21.40;83.00
3850;DHT22;1940;51.052;13.678;2023-07-28T06:51:44;21.50;81.80
3850;DHT22;1940;51.052;13.678;2023-07-28T06:54:10;21.40;82.10
3850;DHT22;1940;51.052;13.678;2023-07-28T06:56:38;21.40;82.90
3850;DHT22;1940;51.052;13.678;2023-07-28T06:59:03;21.60;82.80
3850;DHT22;1940;51.052;13.678;2023-07-28T07:01:29;21.80;81.50
3850;DHT22;1940;51.052;13.678;2023-07-28T07:03:55;21.70;81.60
3850;DHT22;1940;51.052;13.678;2023-07-28T07:06:21;21.60;81.80
3850;DHT22;1940;51.052;13.678;2023-07-28T07:08:46;21.70;82.30
3850;DHT22;1940;51.052;13.678;2023-07-28T07:11:12;21.80;82.30
3850;DHT22;1940;51.052;13.678;2023-07-28T07:13:37;22.10;81.80
3850;DHT22;1940;51.052;13.678;2023-07-28T07:16:03;22.80;79.70
3850;DHT22;1940;51.052;13.678;2023-07-28T07:18:29;23.10;78.40
3850;DHT22;1940;51.052;13.678;2023-07-28T07:20:54;23.50;77.40
3850;DHT22;1940;51.052;13.678;2023-07-28T07:23:20;23.60;76.60
3850;DHT22;1940;51.052;13.678;2023-07-28T07:25:45;23.80;76.20
3850;DHT22;1940;51.052;13.678;2023-07-28T07:28:13;24.10;75.90
3850;DHT22;1940;51.052;13.678;2023-07-28T07:30:39;23.80;75.70
3850;DHT22;1940;51.052;13.678;2023-07-28T07:33:05;23.50;76.30
3850;DHT22;1940;51.052;13.678;2023-07-28T07:35:30;23.30;77.10
3850;DHT22;1940;51.052;13.678;2023-07-28T07:38:00;23.00;77.40
3850;DHT22;1940;51.052;13.678;2023-07-28T07:40:26;22.90;78.30
3850;DHT22;1940;51.052;13.678;2023-07-28T07:42:51;22.90;78.60
3850;DHT22;1940;51.052;13.678;2023-07-28T07:45:17;23.00;78.70
3850;DHT22;1940;51.052;13.678;2023-07-28T07:47:42;22.90;78.30
3850;DHT22;1940;51.052;13.678;2023-07-28T07:50:09;23.10;77.60
3850;DHT22;1940;51.052;13.678;2023-07-28T07:52:36;23.10;77.10
3850;DHT22;1940;51.052;13.678;2023-07-28T07:55:02;23.40;76.90
3850;DHT22;1940;51.052;13.678;2023-07-28T07:57:28;23.20;76.60
3850;DHT22;1940;51.052;13.678;2023-07-28T07:59:54;23.10;76.80
3850;DHT22;1940;51.052;13.678;2023-07-28T08:02:19;22.80;77.50
3850;DHT22;1940;51.052;13.678;2023-07-28T08:04:45;22.70;78.20
3850;DHT22;1940;51.052;13.678;2023-07-28T08:07:10;22.80;78.70
3850;DHT22;1940;51.052;13.678;2023-07-28T08:09:36;22.80;78.60
3850;DHT22;1940;51.052;13.678;2023-07-28T08:12:02;22.60;78.40
3850;DHT22;1940;51.052;13.678;2023-07-28T08:14:28;22.70;78.70
3850;DHT22;1940;51.052;13.678;2023-07-28T08:16:54;22.90;77.80
3850;DHT22;1940;51.052;13.678;2023-07-28T08:19:19;23.50;76.90
3850;DHT22;1940;51.052;13.678;2023-07-28T08:21:45;24.90;74.30
3850;DHT22;1940;51.052;13.678;2023-07-28T08:24:10;26.00;70.70
3850;DHT22;1940;51.052;13.678;2023-07-28T08:26:37;25.90;69.90
3850;DHT22;1940;51.052;13.678;2023-07-28T08:29:02;25.90;70.20
3850;DHT22;1940;51.052;13.678;2023-07-28T08:31:28;26.60;69.20
3850;DHT22;1940;51.052;13.678;2023-07-28T08:33:54;27.20;68.00
3850;DHT22;1940;51.052;13.678;2023-07-28T08:36:19;27.10;67.10
3850;DHT22;1940;51.052;13.678;2023-07-28T08:38:45;26.40;68.50
3850;DHT22;1940;51.052;13.678;2023-07-28T08:41:11;26.20;68.40
3850;DHT22;1940;51.052;13.678;2023-07-28T08:43:37;25.50;69.80
3850;DHT22;1940;51.052;13.678;2023-07-28T08:46:03;25.10;71.20
3850;DHT22;1940;51.052;13.678;2023-07-28T08:48:29;24.70;72.00
3850;DHT22;1940;51.052;13.678;2023-07-28T08:50:54;24.40;73.10
3850;DHT22;1940;51.052;13.678;2023-07-28T08:53:20;24.20;73.20
3850;DHT22;1940;51.052;13.678;2023-07-28T08:55:45;23.90;74.20
3850;DHT22;1940;51.052;13.678;2023-07-28T08:58:17;23.60;75.30
3850;DHT22;1940;51.052;13.678;2023-07-28T09:00:44;23.40;75.50
3850;DHT22;1940;51.052;13.678;2023-07-28T09:03:12;23.30;76.10
3850;DHT22;1940;51.052;13.678;2023-07-28T09:05:37;23.00;76.60
3850;DHT22;1940;51.052;13.678;2023-07-28T09:08:06;22.80;76.90
3850;DHT22;1940;51.052;13.678;2023-07-28T09:10:48;22.60;77.80
3850;DHT22;1940;51.052;13.678;2023-07-28T09:13:15;22.50;78.00
3850;DHT22;1940;51.052;13.678;2023-07-28T09:15:41;22.40;78.40
3850;DHT22;1940;51.052;13.678;2023-07-28T09:18:11;22.50;78.70
3850;DHT22;1940;51.052;13.678;2023-07-28T09:20:39;22.50;78.50
3850;DHT22;1940;51.052;13.678;2023-07-28T09:23:05;22.60;78.60
3850;DHT22;1940;51.052;13.678;2023-07-28T09:25:33;22.50;79.00
3850;DHT22;1940;51.052;13.678;2023-07-28T09:27:59;22.50;79.10
3850;DHT22;1940;51.052;13.678;2023-07-28T09:30:25;22.60;78.60
3850;DHT22;1940;51.052;13.678;2023-07-28T09:32:54;22.60;78.40
3850;DHT22;1940;51.052;13.678;2023-07-28T09:35:21;22.80;78.70
3850;DHT22;1940;51.052;13.678;2023-07-28T09:37:48;24.10;75.20
3850;DHT22;1940;51.052;13.678;2023-07-28T09:40:17;25.70;72.30
3850;DHT22;1940;51.052;13.678;2023-07-28T09:42:46;27.40;67.50
3850;DHT22;1940;51.052;13.678;2023-07-28T09:45:18;29.00;64.10
3850;DHT22;1940;51.052;13.678;2023-07-28T09:47:45;30.40;61.40
3850;DHT22;1940;51.052;13.678;2023-07-28T09:50:18;30.90;59.20
3850;DHT22;1940;51.052;13.678;2023-07-28T09:52:46;31.20;57.80
3850;DHT22;1940;51.052;13.678;2023-07-28T09:55:13;30.30;59.40
3850;DHT22;1940;51.052;13.678;2023-07-28T09:57:52;29.40;61.20
3850;DHT22;1940;51.052;13.678;2023-07-28T10:00:19;28.20;63.30
3850;DHT22;1940;51.052;13.678;2023-07-28T10:02:46;27.50;64.80
3850;DHT22;1940;51.052;13.678;2023-07-28T10:05:12;26.80;66.90
3850;DHT22;1940;51.052;13.678;2023-07-28T10:07:42;26.50;67.80
3850;DHT22;1940;51.052;13.678;2023-07-28T10:10:12;26.30;67.80
3850;DHT22;1940;51.052;13.678;2023-07-28T10:12:52;25.80;69.10
3850;DHT22;1940;51.052;13.678;2023-07-28T10:15:20;25.90;69.60
3850;DHT22;1940;51.052;13.678;2023-07-28T10:17:50;25.80;69.20
3850;DHT22;1940;51.052;13.678;2023-07-28T10:20:36;25.80;69.40
3850;DHT22;1940;51.052;13.678;2023-07-28T10:23:19;25.70;70.20
3850;DHT22;1940;51.052;13.678;2023-07-28T10:25:45;26.10;70.20
3850;DHT22;1940;51.052;13.678;2023-07-28T10:28:30;27.20;68.80
3850;DHT22;1940;51.052;13.678;2023-07-28T10:30:57;28.70;64.20
3850;DHT22;1940;51.052;13.678;2023-07-28T10:33:33;29.00;62.30
3850;DHT22;1940;51.052;13.678;2023-07-28T10:36:34;28.10;64.00
3850;DHT22;1940;51.052;13.678;2023-07-28T10:39:01;27.90;65.40
3850;DHT22;1940;51.052;13.678;2023-07-28T10:41:28;27.60;65.80
3850;DHT22;1940;51.052;13.678;2023-07-28T10:43:55;27.40;66.20
3850;DHT22;1940;51.052;13.678;2023-07-28T10:46:21;27.80;65.30
3850;DHT22;1940;51.052;13.678;2023-07-28T10:48:48;28.00;63.70
3850;DHT22;1940;51.052;13.678;2023-07-28T10:51:26;28.30;64.00
3850;DHT22;1940;51.052;13.678;2023-07-28T10:53:57;29.40;62.00
3850;DHT22;1940;51.052;13.678;2023-07-28T10:56:24;30.70;60.20
3850;DHT22;1940;51.052;13.678;2023-07-28T10:59:02;31.80;58.30
3850;DHT22;1940;51.052;13.678;2023-07-28T11:01:35;32.10;55.90
3850;DHT22;1940;51.052;13.678;2023-07-28T11:04:15;32.00;55.50
3850;DHT22;1940;51.052;13.678;2023-07-28T11:06:45;32.20;55.00
3850;DHT22;1940;51.052;13.678;2023-07-28T11:09:12;32.40;55.10
3850;DHT22;1940;51.052;13.678;2023-07-28T11:11:40;32.70;54.60
3850;DHT22;1940;51.052;13.678;2023-07-28T11:14:07;32.90;53.90
3850;DHT22;1940;51.052;13.678;2023-07-28T11:16:38;32.80;53.70
3850;DHT22;1940;51.052;13.678;2023-07-28T11:19:08;32.90;53.70
3850;DHT22;1940;51.052;13.678;2023-07-28T11:21:37;32.20;55.40
3850;DHT22;1940;51.052;13.678;2023-07-28T11:24:03;32.10;54.70
3850;DHT22;1940;51.052;13.678;2023-07-28T11:26:29;31.50;56.40
3850;DHT22;1940;51.052;13.678;2023-07-28T11:28:55;30.80;56.90
3850;DHT22;1940;51.052;13.678;2023-07-28T11:31:25;30.60;57.50
3850;DHT22;1940;51.052;13.678;2023-07-28T11:33:51;30.60;58.10
3850;DHT22;1940;51.052;13.678;2023-07-28T11:36:28;30.20;58.60
3850;DHT22;1940;51.052;13.678;2023-07-28T11:38:55;29.40;59.40
3850;DHT22;1940;51.052;13.678;2023-07-28T11:41:22;28.70;60.70
3850;DHT22;1940;51.052;13.678;2023-07-28T11:43:49;28.70;61.10
3850;DHT22;1940;51.052;13.678;2023-07-28T11:46:41;28.60;60.90
3850;DHT22;1940;51.052;13.678;2023-07-28T11:49:15;27.90;60.90
3850;DHT22;1940;51.052;13.678;2023-07-28T11:51:43;27.30;62.00
3850;DHT22;1940;51.052;13.678;2023-07-28T11:54:17;27.00;62.20
3850;DHT22;1940;51.052;13.678;2023-07-28T11:56:43;27.10;63.40
3850;DHT22;1940;51.052;13.678;2023-07-28T11:59:10;27.10;63.80
3850;DHT22;1940;51.052;13.678;2023-07-28T12:01:50;27.10;64.10
3850;DHT22;1940;51.052;13.678;2023-07-28T12:04:21;26.80;64.60
3850;DHT22;1940;51.052;13.678;2023-07-28T12:07:13;26.60;65.50
3850;DHT22;1940;51.052;13.678;2023-07-28T12:12:11;26.90;66.50
3850;DHT22;1940;51.052;13.678;2023-07-28T12:14:37;27.10;65.80
3850;DHT22;1940;51.052;13.678;2023-07-28T12:17:03;27.00;64.80
3850;DHT22;1940;51.052;13.678;2023-07-28T12:19:59;26.80;65.40
3850;DHT22;1940;51.052;13.678;2023-07-28T12:22:26;26.70;65.40
3850;DHT22;1940;51.052;13.678;2023-07-28T12:24:53;26.40;66.10
3850;DHT22;1940;51.052;13.678;2023-07-28T12:27:19;26.60;66.30
3850;DHT22;1940;51.052;13.678;2023-07-28T12:29:46;26.50;65.80
3850;DHT22;1940;51.052;13.678;2023-07-28T12:32:11;26.60;66.10
3850;DHT22;1940;51.052;13.678;2023-07-28T12:34:37;26.80;66.10
3850;DHT22;1940;51.052;13.678;2023-07-28T12:37:03;27.00;65.70
3850;DHT22;1940;51.052;13.678;2023-07-28T12:39:28;27.00;65.60
3850;DHT22;1940;51.052;13.678;2023-07-28T12:41:54;27.00;65.00
3850;DHT22;1940;51.052;13.678;2023-07-28T12:44:20;26.80;65.00
3850;DHT22;1940;51.052;13.678;2023-07-28T12:46:46;26.70;64.60
3850;DHT22;1940;51.052;13.678;2023-07-28T12:49:11;26.50;64.70
3850;DHT22;1940;51.052;13.678;2023-07-28T12:51:37;26.50;65.30
3850;DHT22;1940;51.052;13.678;2023-07-28T12:54:03;26.60;66.10
3850;DHT22;1940;51.052;13.678;2023-07-28T12:56:28;26.40;65.60
3850;DHT22;1940;51.052;13.678;2023-07-28T12:58:54;26.20;66.30
3850;DHT22;1940;51.052;13.678;2023-07-28T13:01:19;26.10;67.00
3850;DHT22;1940;51.052;13.678;2023-07-28T13:03:45;26.10;66.90
3850;DHT22;1940;51.052;13.678;2023-07-28T13:06:11;26.20;67.40
3850;DHT22;1940;51.052;13.678;2023-07-28T13:08:36;26.50;67.10
3850;DHT22;1940;51.052;13.678;2023-07-28T13:11:02;26.50;66.80
3850;DHT22;1940;51.052;13.678;2023-07-28T13:13:28;26.50;67.30
3850;DHT22;1940;51.052;13.678;2023-07-28T13:15:55;26.50;66.90
3850;DHT22;1940;51.052;13.678;2023-07-28T13:18:21;26.50;66.40
3850;DHT22;1940;51.052;13.678;2023-07-28T13:20:47;26.50;66.30
3850;DHT22;1940;51.052;13.678;2023-07-28T13:23:12;26.50;66.00
3850;DHT22;1940;51.052;13.678;2023-07-28T13:25:38;26.40;66.50
3850;DHT22;1940;51.052;13.678;2023-07-28T13:28:04;26.50;66.30
3850;DHT22;1940;51.052;13.678;2023-07-28T13:30:29;26.60;65.00
3850;DHT22;1940;51.052;13.678;2023-07-28T13:32:55;26.60;65.20
3850;DHT22;1940;51.052;13.678;2023-07-28T13:35:20;26.60;64.80
3850;DHT22;1940;51.052;13.678;2023-07-28T13:37:46;26.50;66.50
3850;DHT22;1940;51.052;13.678;2023-07-28T13:40:11;26.70;66.80
3850;DHT22;1940;51.052;13.678;2023-07-28T13:42:37;26.80;65.70
3850;DHT22;1940;51.052;13.678;2023-07-28T13:45:03;26.90;65.60
3850;DHT22;1940;51.052;13.678;2023-07-28T13:47:30;27.00;65.50
3850;DHT22;1940;51.052;13.678;2023-07-28T13:49:55;27.00;65.20
3850;DHT22;1940;51.052;13.678;2023-07-28T13:52:21;27.30;65.10
3850;DHT22;1940;51.052;13.678;2023-07-28T13:54:46;27.30;62.60
3850;DHT22;1940;51.052;13.678;2023-07-28T13:57:12;27.30;63.40
3850;DHT22;1940;51.052;13.678;2023-07-28T13:59:38;27.20;64.30
3850;DHT22;1940;51.052;13.678;2023-07-28T14:02:04;27.20;65.20
3850;DHT22;1940;51.052;13.678;2023-07-28T14:04:29;27.20;64.00
3850;DHT22;1940;51.052;13.678;2023-07-28T14:06:54;27.40;63.40
3850;DHT22;1940;51.052;13.678;2023-07-28T14:09:20;27.30;63.70
3850;DHT22;1940;51.052;13.678;2023-07-28T14:11:45;27.20;64.50
3850;DHT22;1940;51.052;13.678;2023-07-28T14:14:11;27.20;64.30
3850;DHT22;1940;51.052;13.678;2023-07-28T14:16:36;27.20;63.70
3850;DHT22;1940;51.052;13.678;2023-07-28T14:19:02;27.20;64.30
3850;DHT22;1940;51.052;13.678;2023-07-28T14:21:28;27.10;63.40
3850;DHT22;1940;51.052;13.678;2023-07-28T14:23:53;27.00;64.00
3850;DHT22;1940;51.052;13.678;2023-07-28T14:26:19;27.10;64.00
3850;DHT22;1940;51.052;13.678;2023-07-28T14:28:44;27.00;64.60
3850;DHT22;1940;51.052;13.678;2023-07-28T14:31:10;27.00;65.60
3850;DHT22;1940;51.052;13.678;2023-07-28T14:33:36;27.10;63.90
3850;DHT22;1940;51.052;13.678;2023-07-28T14:36:01;27.20;63.70
3850;DHT22;1940;51.052;13.678;2023-07-28T14:38:27;27.30;63.00
3850;DHT22;1940;51.052;13.678;2023-07-28T14:40:52;27.30;62.90
3850;DHT22;1940;51.052;13.678;2023-07-28T14:43:18;27.20;63.30
3850;DHT22;1940;51.052;13.678;2023-07-28T14:45:43;27.10;63.30
3850;DHT22;1940;51.052;13.678;2023-07-28T14:48:09;27.00;63.70
3850;DHT22;1940;51.052;13.678;2023-07-28T14:50:35;27.00;63.90
3850;DHT22;1940;51.052;13.678;2023-07-28T14:53:00;26.80;64.00
3850;DHT22;1940;51.052;13.678;2023-07-28T14:55:27;27.00;64.00
3850;DHT22;1940;51.052;13.678;2023-07-28T14:57:52;26.90;64.30
3850;DHT22;1940;51.052;13.678;2023-07-28T15:00:18;26.80;64.50
3850;DHT22;1940;51.052;13.678;2023-07-28T15:02:44;26.40;66.40
3850;DHT22;1940;51.052;13.678;2023-07-28T15:05:09;26.10;68.50
3850;DHT22;1940;51.052;13.678;2023-07-28T15:07:35;25.60;73.70
3850;DHT22;1940;51.052;13.678;2023-07-28T15:10:02;24.70;77.40
3850;DHT22;1940;51.052;13.678;2023-07-28T15:12:28;23.90;81.00
3850;DHT22;1940;51.052;13.678;2023-07-28T15:14:54;23.20;84.20
3850;DHT22;1940;51.052;13.678;2023-07-28T15:17:20;22.90;85.30
3850;DHT22;1940;51.052;13.678;2023-07-28T15:19:45;22.80;87.10
3850;DHT22;1940;51.052;13.678;2023-07-28T15:22:11;22.90;87.00
3850;DHT22;1940;51.052;13.678;2023-07-28T15:24:37;23.00;86.60
3850;DHT22;1940;51.052;13.678;2023-07-28T15:27:03;23.10;86.50
3850;DHT22;1940;51.052;13.678;2023-07-28T15:29:28;23.30;86.50
3850;DHT22;1940;51.052;13.678;2023-07-28T15:31:54;23.50;86.50
3850;DHT22;1940;51.052;13.678;2023-07-28T15:34:20;23.80;86.90
3850;DHT22;1940;51.052;13.678;2023-07-28T15:36:46;24.00;85.90
3850;DHT22;1940;51.052;13.678;2023-07-28T15:39:12;24.10;84.70
3850;DHT22;1940;51.052;13.678;2023-07-28T15:41:37;24.30;84.10
3850;DHT22;1940;51.052;13.678;2023-07-28T15:44:03;24.40;83.00
3850;DHT22;1940;51.052;13.678;2023-07-28T15:46:29;24.60;82.20
3850;DHT22;1940;51.052;13.678;2023-07-28T15:48:54;24.80;82.00
3850;DHT22;1940;51.052;13.678;2023-07-28T15:51:20;25.00;80.50